sensor_id;sensor_type;location;lat;lon;timestamp;pressure;altitude;pressure_sealevel;temperature;humidity
28701;BME280;15877;52.344;16.790;2023-03-13T00:01:12;99810.15;;;5.98;75.93
28701;BME280;15877;52.344;16.790;2023-03-13T00:03:45;99810.16;;;6.03;75.79
28701;BME280;15877;52.344;16.790;2023-03-13T00:06:18;99808.01;;;6.02;76.04
28701;BME280;15877;52.344;16.790;2023-03-13T00:08:51;99810.60;;;5.92;76.67
28701;BME280;15877;52.344;16.790;2023-03-13T00:11:25;99801.33;;;5.90;76.70
28701;BME280;15877;52.344;16.790;2023-03-13T00:13:58;99803.39;;;5.71;78.00
28701;BME280;15877;52.344;16.790;2023-03-13T00:16:31;99806.23;;;5.88;77.42
28701;BME280;15877;52.344;16.790;2023-03-13T00:19:06;99807.27;;;5.97;77.01
28701;BME280;15877;52.344;16.790;2023-03-13T00:21:39;99818.23;;;5.99;76.92
28701;BME280;15877;52.344;16.790;2023-03-13T00:24:12;99820.88;;;6.12;76.30
28701;BME280;15877;52.344;16.790;2023-03-13T00:26:45;99820.28;;;6.05;76.95
28701;BME280;15877;52.344;16.790;2023-03-13T00:29:18;99816.40;;;5.94;77.71
28701;BME280;15877;52.344;16.790;2023-03-13T00:31:50;99812.83;;;6.03;77.45
28701;BME280;15877;52.344;16.790;2023-03-13T00:34:23;99811.52;;;6.09;77.35
28701;BME280;15877;52.344;16.790;2023-03-13T00:36:57;99806.69;;;6.19;76.71
28701;BME280;15877;52.344;16.790;2023-03-13T00:39:31;99801.88;;;6.27;76.32
28701;BME280;15877;52.344;16.790;2023-03-13T00:42:05;99796.02;;;6.26;76.64
28701;BME280;15877;52.344;16.790;2023-03-13T00:44:37;99792.15;;;6.23;77.04
28701;BME280;15877;52.344;16.790;2023-03-13T00:47:10;99783.73;;;6.15;77.85
28701;BME280;15877;52.344;16.790;2023-03-13T00:49:43;99780.09;;;6.12;78.28
28701;BME280;15877;52.344;16.790;2023-03-13T00:52:18;99783.26;;;6.18;78.33
28701;BME280;15877;52.344;16.790;2023-03-13T00:54:49;99784.60;;;6.32;77.43
28701;BME280;15877;52.344;16.790;2023-03-13T00:57:21;99785.84;;;6.28;77.94
28701;BME280;15877;52.344;16.790;2023-03-13T00:59:54;99784.60;;;6.32;77.73
28701;BME280;15877;52.344;16.790;2023-03-13T01:02:27;99782.94;;;6.17;78.76
28701;BME280;15877;52.344;16.790;2023-03-13T01:05:03;99782.02;;;6.22;78.93
28701;BME280;15877;52.344;16.790;2023-03-13T01:07:36;99778.23;;;6.32;78.37
28701;BME280;15877;52.344;16.790;2023-03-13T01:10:10;99778.63;;;6.30;78.73
28701;BME280;15877;52.344;16.790;2023-03-13T01:12:42;99766.77;;;6.06;79.92
28701;BME280;15877;52.344;16.790;2023-03-13T01:15:15;99784.23;;;6.30;79.32
28701;BME280;15877;52.344;16.790;2023-03-13T01:17:51;99784.34;;;6.31;79.51
28701;BME280;15877;52.344;16.790;2023-03-13T01:20:23;99779.09;;;6.29;79.88
28701;BME280;15877;52.344;16.790;2023-03-13T01:22:56;99778.60;;;6.31;80.11
28701;BME280;15877;52.344;16.790;2023-03-13T01:25:29;99776.45;;;6.33;80.17
28701;BME280;15877;52.344;16.790;2023-03-13T01:28:04;99774.77;;;6.28;80.68
28701;BME280;15877;52.344;16.790;2023-03-13T01:30:36;99777.83;;;6.38;80.34
28701;BME280;15877;52.344;16.790;2023-03-13T01:33:09;99784.92;;;6.44;80.05
28701;BME280;15877;52.344;16.790;2023-03-13T01:35:41;99757.98;;;6.38;80.11
28701;BME280;15877;52.344;16.790;2023-03-13T01:38:15;99764.63;;;6.45;80.56
28701;BME280;15877;52.344;16.790;2023-03-13T01:40:48;99762.67;;;6.45;80.94
28701;BME280;15877;52.344;16.790;2023-03-13T01:43:22;99757.17;;;6.58;80.19
28701;BME280;15877;52.344;16.790;2023-03-13T01:46:09;99747.73;;;6.59;80.28
28701;BME280;15877;52.344;16.790;2023-03-13T01:48:53;99739.36;;;6.49;81.11
28701;BME280;15877;52.344;16.790;2023-03-13T01:51:29;99743.29;;;6.49;81.34
28701;BME280;15877;52.344;16.790;2023-03-13T01:54:05;99737.73;;;6.47;81.76
28701;BME280;15877;52.344;16.790;2023-03-13T01:56:42;99741.46;;;6.51;81.66
28701;BME280;15877;52.344;16.790;2023-03-13T01:59:20;99739.00;;;6.61;81.10
28701;BME280;15877;52.344;16.790;2023-03-13T02:01:57;99735.19;;;6.60;81.34
28701;BME280;15877;52.344;16.790;2023-03-13T02:04:36;99732.42;;;6.64;81.47
28701;BME280;15877;52.344;16.790;2023-03-13T02:07:13;99729.21;;;6.68;81.55
28701;BME280;15877;52.344;16.790;2023-03-13T02:09:50;99736.50;;;6.78;81.00
28701;BME280;15877;52.344;16.790;2023-03-13T02:12:28;99747.89;;;6.82;81.09
28701;BME280;15877;52.344;16.790;2023-03-13T02:15:04;99745.20;;;6.79;81.72
28701;BME280;15877;52.344;16.790;2023-03-13T02:17:40;99744.42;;;6.82;81.85
28701;BME280;15877;52.344;16.790;2023-03-13T02:20:17;99740.42;;;6.80;82.66
28701;BME280;15877;52.344;16.790;2023-03-13T02:22:59;99742.67;;;6.79;83.03
28701;BME280;15877;52.344;16.790;2023-03-13T02:25:40;99737.66;;;6.83;83.22
28701;BME280;15877;52.344;16.790;2023-03-13T02:28:17;99732.26;;;6.88;83.27
28701;BME280;15877;52.344;16.790;2023-03-13T02:30:53;99729.86;;;6.80;83.61
28701;BME280;15877;52.344;16.790;2023-03-13T02:33:29;99717.29;;;6.83;83.31
28701;BME280;15877;52.344;16.790;2023-03-13T02:36:04;99725.91;;;6.99;82.88
28701;BME280;15877;52.344;16.790;2023-03-13T02:38:41;99725.45;;;7.02;82.79
28701;BME280;15877;52.344;16.790;2023-03-13T02:41:17;99732.66;;;7.07;82.32
28701;BME280;15877;52.344;16.790;2023-03-13T02:43:52;99736.37;;;7.10;82.33
28701;BME280;15877;52.344;16.790;2023-03-13T02:46:24;99733.96;;;7.11;82.20
28701;BME280;15877;52.344;16.790;2023-03-13T02:48:57;99738.51;;;7.11;82.77
28701;BME280;15877;52.344;16.790;2023-03-13T02:51:35;99743.50;;;7.15;82.42
28701;BME280;15877;52.344;16.790;2023-03-13T02:54:15;99739.50;;;7.18;82.21
28701;BME280;15877;52.344;16.790;2023-03-13T02:56:49;99754.08;;;7.11;82.60
28701;BME280;15877;52.344;16.790;2023-03-13T02:59:23;99747.45;;;7.05;83.07
28701;BME280;15877;52.344;16.790;2023-03-13T03:01:56;99748.52;;;7.13;82.88
28701;BME280;15877;52.344;16.790;2023-03-13T03:04:29;99747.09;;;7.16;82.91
28701;BME280;15877;52.344;16.790;2023-03-13T03:07:02;99744.13;;;7.14;83.36
28701;BME280;15877;52.344;16.790;2023-03-13T03:09:34;99745.37;;;7.14;83.77
28701;BME280;15877;52.344;16.790;2023-03-13T03:12:10;99732.02;;;7.13;83.48
28701;BME280;15877;52.344;16.790;2023-03-13T03:14:43;99750.09;;;7.16;84.13
28701;BME280;15877;52.344;16.790;2023-03-13T03:17:16;99746.92;;;7.19;84.38
28701;BME280;15877;52.344;16.790;2023-03-13T03:19:49;99739.70;;;7.14;85.19
28701;BME280;15877;52.344;16.790;2023-03-13T03:22:23;99738.21;;;7.14;85.33
28701;BME280;15877;52.344;16.790;2023-03-13T03:24:55;99732.16;;;7.16;85.32
28701;BME280;15877;52.344;16.790;2023-03-13T03:27:28;99733.23;;;7.11;85.98
28701;BME280;15877;52.344;16.790;2023-03-13T03:30:02;99731.13;;;6.93;87.36
28701;BME280;15877;52.344;16.790;2023-03-13T03:32:36;99729.67;;;7.04;87.22
28701;BME280;15877;52.344;16.790;2023-03-13T03:35:09;99724.38;;;7.01;87.48
28701;BME280;15877;52.344;16.790;2023-03-13T03:37:41;99718.20;;;6.90;88.48
28701;BME280;15877;52.344;16.790;2023-03-13T03:40:18;99719.77;;;6.90;89.13
28701;BME280;15877;52.344;16.790;2023-03-13T03:42:51;99717.50;;;6.91;89.75
28701;BME280;15877;52.344;16.790;2023-03-13T03:45:24;99711.20;;;7.04;89.17
28701;BME280;15877;52.344;16.790;2023-03-13T03:47:57;99711.45;;;7.14;88.66
28701;BME280;15877;52.344;16.790;2023-03-13T03:50:33;99708.55;;;7.15;88.76
28701;BME280;15877;52.344;16.790;2023-03-13T03:53:08;99706.64;;;6.92;89.85
28701;BME280;15877;52.344;16.790;2023-03-13T03:55:41;99709.48;;;6.98;90.45
28701;BME280;15877;52.344;16.790;2023-03-13T03:58:13;99701.40;;;6.84;91.01
28701;BME280;15877;52.344;16.790;2023-03-13T04:01:08;99702.75;;;6.84;91.78
28701;BME280;15877;52.344;16.790;2023-03-13T04:03:41;99698.27;;;6.95;91.41
28701;BME280;15877;52.344;16.790;2023-03-13T04:06:15;99688.77;;;6.99;90.99
28701;BME280;15877;52.344;16.790;2023-03-13T04:08:48;99683.58;;;7.03;90.72
28701;BME280;15877;52.344;16.790;2023-03-13T04:11:23;99682.34;;;7.18;89.66
28701;BME280;15877;52.344;16.790;2023-03-13T04:13:58;99682.14;;;6.90;90.29
28701;BME280;15877;52.344;16.790;2023-03-13T04:16:30;99678.33;;;6.98;90.97
28701;BME280;15877;52.344;16.790;2023-03-13T04:19:07;99680.23;;;7.06;90.56
28701;BME280;15877;52.344;16.790;2023-03-13T04:21:40;99674.44;;;7.01;91.05
28701;BME280;15877;52.344;16.790;2023-03-13T04:24:17;99669.27;;;7.09;90.96
28701;BME280;15877;52.344;16.790;2023-03-13T04:26:49;99664.19;;;7.18;90.56
28701;BME280;15877;52.344;16.790;2023-03-13T04:29:22;99657.45;;;7.26;89.98
28701;BME280;15877;52.344;16.790;2023-03-13T04:32:02;99647.00;;;7.22;89.54
28701;BME280;15877;52.344;16.790;2023-03-13T04:34:55;99658.36;;;7.33;89.38
28701;BME280;15877;52.344;16.790;2023-03-13T04:37:48;99662.48;;;7.37;89.26
28701;BME280;15877;52.344;16.790;2023-03-13T04:40:32;99654.15;;;7.42;89.24
28701;BME280;15877;52.344;16.790;2023-03-13T04:43:24;99654.98;;;7.43;89.59
28701;BME280;15877;52.344;16.790;2023-03-13T04:46:09;99650.80;;;7.51;89.47
28701;BME280;15877;52.344;16.790;2023-03-13T04:49:02;99648.45;;;7.60;88.74
28701;BME280;15877;52.344;16.790;2023-03-13T04:52:11;99644.31;;;7.61;88.80
28701;BME280;15877;52.344;16.790;2023-03-13T04:55:21;99645.02;;;7.69;88.03
28701;BME280;15877;52.344;16.790;2023-03-13T04:58:17;99645.89;;;7.66;87.52
28701;BME280;15877;52.344;16.790;2023-03-13T05:01:10;99646.29;;;7.62;87.72
28701;BME280;15877;52.344;16.790;2023-03-13T05:04:06;99651.23;;;7.75;86.73
28701;BME280;15877;52.344;16.790;2023-03-13T05:07:02;99647.98;;;7.67;87.16
28701;BME280;15877;52.344;16.790;2023-03-13T05:09:35;99642.53;;;7.60;88.05
28701;BME280;15877;52.344;16.790;2023-03-13T05:12:33;99641.80;;;7.59;88.54
28701;BME280;15877;52.344;16.790;2023-03-13T05:15:29;99639.40;;;7.65;88.60
28701;BME280;15877;52.344;16.790;2023-03-13T05:18:23;99638.38;;;7.65;89.02
28701;BME280;15877;52.344;16.790;2023-03-13T05:21:09;99636.64;;;7.69;88.73
28701;BME280;15877;52.344;16.790;2023-03-13T05:24:01;99616.27;;;7.69;88.14
28701;BME280;15877;52.344;16.790;2023-03-13T05:26:54;99621.89;;;7.70;88.39
28701;BME280;15877;52.344;16.790;2023-03-13T05:29:49;99620.35;;;7.72;88.05
28701;BME280;15877;52.344;16.790;2023-03-13T05:32:38;99619.55;;;7.79;87.57
28701;BME280;15877;52.344;16.790;2023-03-13T05:35:32;99623.60;;;7.81;87.29
28701;BME280;15877;52.344;16.790;2023-03-13T05:38:37;99609.48;;;7.77;87.14
28701;BME280;15877;52.344;16.790;2023-03-13T05:41:41;99603.70;;;7.81;87.03
28701;BME280;15877;52.344;16.790;2023-03-13T05:44:34;99611.54;;;7.93;86.67
28701;BME280;15877;52.344;16.790;2023-03-13T05:47:21;99606.48;;;7.93;86.54
28701;BME280;15877;52.344;16.790;2023-03-13T05:50:10;99592.98;;;7.90;86.37
28701;BME280;15877;52.344;16.790;2023-03-13T05:53:12;99597.62;;;8.01;86.34
28701;BME280;15877;52.344;16.790;2023-03-13T05:56:21;99594.44;;;7.96;86.94
28701;BME280;15877;52.344;16.790;2023-03-13T05:59:05;99588.46;;;7.93;87.61
28701;BME280;15877;52.344;16.790;2023-03-13T06:01:52;99581.60;;;7.98;87.55
28701;BME280;15877;52.344;16.790;2023-03-13T06:04:40;99570.45;;;7.89;87.97
28701;BME280;15877;52.344;16.790;2023-03-13T06:07:13;99581.40;;;7.96;88.05
28701;BME280;15877;52.344;16.790;2023-03-13T06:09:49;99578.75;;;7.98;88.19
28701;BME280;15877;52.344;16.790;2023-03-13T06:12:21;99575.27;;;8.06;88.04
28701;BME280;15877;52.344;16.790;2023-03-13T06:14:54;99572.91;;;8.11;87.98
28701;BME280;15877;52.344;16.790;2023-03-13T06:17:44;99572.30;;;8.13;88.17
28701;BME280;15877;52.344;16.790;2023-03-13T06:20:20;99568.00;;;8.15;88.61
28701;BME280;15877;52.344;16.790;2023-03-13T06:22:53;99562.78;;;8.11;89.00
28701;BME280;15877;52.344;16.790;2023-03-13T06:25:26;99562.52;;;8.14;89.43
28701;BME280;15877;52.344;16.790;2023-03-13T06:27:58;99564.14;;;8.16;89.22
28701;BME280;15877;52.344;16.790;2023-03-13T06:30:31;99566.74;;;8.16;89.33
28701;BME280;15877;52.344;16.790;2023-03-13T06:33:03;99565.38;;;8.27;88.74
28701;BME280;15877;52.344;16.790;2023-03-13T06:35:38;99560.96;;;8.27;88.67
28701;BME280;15877;52.344;16.790;2023-03-13T06:38:26;99553.95;;;8.25;88.88
28701;BME280;15877;52.344;16.790;2023-03-13T06:40:59;99547.56;;;8.25;88.93
28701;BME280;15877;52.344;16.790;2023-03-13T06:43:32;99548.73;;;8.20;89.45
28701;BME280;15877;52.344;16.790;2023-03-13T06:46:05;99531.70;;;8.18;89.39
28701;BME280;15877;52.344;16.790;2023-03-13T06:48:38;99535.88;;;8.22;89.83
28701;BME280;15877;52.344;16.790;2023-03-13T06:51:13;99537.64;;;8.32;89.42
28701;BME280;15877;52.344;16.790;2023-03-13T06:53:49;99529.27;;;8.32;89.85
28701;BME280;15877;52.344;16.790;2023-03-13T06:56:23;99514.59;;;8.20;90.64
28701;BME280;15877;52.344;16.790;2023-03-13T06:58:55;99531.83;;;8.39;90.52
28701;BME280;15877;52.344;16.790;2023-03-13T07:01:30;99527.80;;;8.49;90.02
28701;BME280;15877;52.344;16.790;2023-03-13T07:04:03;99520.04;;;8.53;90.00
28701;BME280;15877;52.344;16.790;2023-03-13T07:06:35;99523.80;;;8.47;90.16
28701;BME280;15877;52.344;16.790;2023-03-13T07:09:08;99516.08;;;8.48;90.61
28701;BME280;15877;52.344;16.790;2023-03-13T07:11:41;99515.23;;;8.54;90.67
28701;BME280;15877;52.344;16.790;2023-03-13T07:14:14;99513.05;;;8.57;90.89
28701;BME280;15877;52.344;16.790;2023-03-13T07:16:47;99504.55;;;8.59;90.61
28701;BME280;15877;52.344;16.790;2023-03-13T07:19:20;99498.73;;;8.62;90.70
28701;BME280;15877;52.344;16.790;2023-03-13T07:21:53;99497.48;;;8.69;90.60
28701;BME280;15877;52.344;16.790;2023-03-13T07:24:26;99498.09;;;8.73;90.02
28701;BME280;15877;52.344;16.790;2023-03-13T07:26:59;99493.09;;;8.71;90.04
28701;BME280;15877;52.344;16.790;2023-03-13T07:29:37;99498.86;;;8.76;89.93
28701;BME280;15877;52.344;16.790;2023-03-13T07:32:10;99499.05;;;8.79;89.44
28701;BME280;15877;52.344;16.790;2023-03-13T07:34:42;99493.63;;;8.70;90.17
28701;BME280;15877;52.344;16.790;2023-03-13T07:37:16;99489.02;;;8.75;89.97
28701;BME280;15877;52.344;16.790;2023-03-13T07:39:49;99479.77;;;8.86;89.71
28701;BME280;15877;52.344;16.790;2023-03-13T07:42:22;99477.00;;;8.98;89.10
28701;BME280;15877;52.344;16.790;2023-03-13T07:44:55;99478.08;;;8.96;89.17
28701;BME280;15877;52.344;16.790;2023-03-13T07:47:27;99469.88;;;8.98;89.12
28701;BME280;15877;52.344;16.790;2023-03-13T07:50:00;99464.95;;;9.02;88.90
28701;BME280;15877;52.344;16.790;2023-03-13T07:52:32;99463.42;;;9.02;88.72
28701;BME280;15877;52.344;16.790;2023-03-13T07:55:06;99456.67;;;8.93;89.33
28701;BME280;15877;52.344;16.790;2023-03-13T07:57:38;99451.06;;;8.99;89.49
28701;BME280;15877;52.344;16.790;2023-03-13T08:00:12;99447.38;;;9.08;89.48
28701;BME280;15877;52.344;16.790;2023-03-13T08:02:48;99438.41;;;9.08;89.56
28701;BME280;15877;52.344;16.790;2023-03-13T08:05:21;99433.31;;;9.12;89.57
28701;BME280;15877;52.344;16.790;2023-03-13T08:07:53;99432.52;;;9.11;89.13
28701;BME280;15877;52.344;16.790;2023-03-13T08:10:26;99430.40;;;9.20;89.02
28701;BME280;15877;52.344;16.790;2023-03-13T08:12:59;99426.40;;;9.30;88.86
28701;BME280;15877;52.344;16.790;2023-03-13T08:15:32;99413.96;;;9.29;88.62
28701;BME280;15877;52.344;16.790;2023-03-13T08:18:05;99412.20;;;9.28;88.72
28701;BME280;15877;52.344;16.790;2023-03-13T08:20:38;99388.80;;;9.16;88.99
28701;BME280;15877;52.344;16.790;2023-03-13T08:23:10;99398.75;;;9.21;88.60
28701;BME280;15877;52.344;16.790;2023-03-13T08:25:43;99396.91;;;9.28;88.16
28701;BME280;15877;52.344;16.790;2023-03-13T08:28:15;99396.75;;;9.34;88.32
28701;BME280;15877;52.344;16.790;2023-03-13T08:30:48;99394.99;;;9.41;87.85
28701;BME280;15877;52.344;16.790;2023-03-13T08:33:20;99404.33;;;9.39;87.98
28701;BME280;15877;52.344;16.790;2023-03-13T08:35:53;99387.91;;;9.44;87.15
28701;BME280;15877;52.344;16.790;2023-03-13T08:38:25;99385.91;;;9.50;86.97
28701;BME280;15877;52.344;16.790;2023-03-13T08:40:58;99380.10;;;9.56;86.64
28701;BME280;15877;52.344;16.790;2023-03-13T08:43:31;99374.36;;;9.53;86.48
28701;BME280;15877;52.344;16.790;2023-03-13T08:46:04;99367.85;;;9.60;86.07
28701;BME280;15877;52.344;16.790;2023-03-13T08:48:37;99365.86;;;9.69;85.94
28701;BME280;15877;52.344;16.790;2023-03-13T08:51:11;99365.60;;;9.76;85.62
28701;BME280;15877;52.344;16.790;2023-03-13T08:53:44;99362.69;;;9.77;86.32
28701;BME280;15877;52.344;16.790;2023-03-13T08:56:18;99361.00;;;9.76;86.54
28701;BME280;15877;52.344;16.790;2023-03-13T08:58:51;99359.11;;;9.75;86.89
28701;BME280;15877;52.344;16.790;2023-03-13T09:01:26;99356.17;;;9.75;87.05
28701;BME280;15877;52.344;16.790;2023-03-13T09:03:59;99348.98;;;9.68;87.95
28701;BME280;15877;52.344;16.790;2023-03-13T09:06:36;99347.19;;;9.71;87.23
28701;BME280;15877;52.344;16.790;2023-03-13T09:09:10;99336.31;;;9.91;87.46
28701;BME280;15877;52.344;16.790;2023-03-13T09:11:44;99329.02;;;9.89;87.90
28701;BME280;15877;52.344;16.790;2023-03-13T09:14:17;99322.76;;;10.01;87.48
28701;BME280;15877;52.344;16.790;2023-03-13T09:16:49;99316.76;;;10.05;86.23
28701;BME280;15877;52.344;16.790;2023-03-13T09:19:22;99308.17;;;10.03;85.99
28701;BME280;15877;52.344;16.790;2023-03-13T09:21:54;99306.44;;;10.04;86.49
28701;BME280;15877;52.344;16.790;2023-03-13T09:24:28;99298.38;;;10.18;86.68
28701;BME280;15877;52.344;16.790;2023-03-13T09:27:01;99298.83;;;10.14;86.55
28701;BME280;15877;52.344;16.790;2023-03-13T09:29:33;99295.35;;;10.05;86.75
28701;BME280;15877;52.344;16.790;2023-03-13T09:32:10;99292.09;;;10.13;86.40
28701;BME280;15877;52.344;16.790;2023-03-13T09:34:42;99271.33;;;10.16;85.95
28701;BME280;15877;52.344;16.790;2023-03-13T09:37:15;99283.65;;;10.19;86.21
28701;BME280;15877;52.344;16.790;2023-03-13T09:39:48;99269.92;;;10.17;86.33
28701;BME280;15877;52.344;16.790;2023-03-13T09:42:31;99265.46;;;10.17;86.71
28701;BME280;15877;52.344;16.790;2023-03-13T09:45:11;99252.12;;;10.13;87.40
28701;BME280;15877;52.344;16.790;2023-03-13T09:47:47;99250.48;;;10.18;87.00
28701;BME280;15877;52.344;16.790;2023-03-13T09:50:24;99248.89;;;10.17;87.15
28701;BME280;15877;52.344;16.790;2023-03-13T09:53:03;99254.70;;;10.19;88.09
28701;BME280;15877;52.344;16.790;2023-03-13T09:55:38;99252.89;;;10.24;87.79
28701;BME280;15877;52.344;16.790;2023-03-13T09:58:16;99251.95;;;10.25;87.62
28701;BME280;15877;52.344;16.790;2023-03-13T10:00:55;99251.43;;;10.36;87.86
28701;BME280;15877;52.344;16.790;2023-03-13T10:03:33;99247.88;;;10.40;87.51
28701;BME280;15877;52.344;16.790;2023-03-13T10:06:14;99245.77;;;10.48;86.92
28701;BME280;15877;52.344;16.790;2023-03-13T10:08:49;99238.85;;;10.45;86.91
28701;BME280;15877;52.344;16.790;2023-03-13T10:11:27;99238.63;;;10.50;86.67
28701;BME280;15877;52.344;16.790;2023-03-13T10:14:15;99227.65;;;10.40;86.84
28701;BME280;15877;52.344;16.790;2023-03-13T10:16:52;99224.34;;;10.43;87.44
28701;BME280;15877;52.344;16.790;2023-03-13T10:19:33;99224.63;;;10.42;87.91
28701;BME280;15877;52.344;16.790;2023-03-13T10:22:13;99225.38;;;10.26;88.52
28701;BME280;15877;52.344;16.790;2023-03-13T10:24:50;99222.33;;;10.31;88.62
28701;BME280;15877;52.344;16.790;2023-03-13T10:27:26;99210.62;;;10.23;89.06
28701;BME280;15877;52.344;16.790;2023-03-13T10:29:58;99222.89;;;10.39;89.09
28701;BME280;15877;52.344;16.790;2023-03-13T10:32:31;99216.87;;;10.42;88.96
28701;BME280;15877;52.344;16.790;2023-03-13T10:35:04;99216.11;;;10.29;89.55
28701;BME280;15877;52.344;16.790;2023-03-13T10:37:43;99210.01;;;10.30;90.28
28701;BME280;15877;52.344;16.790;2023-03-13T10:40:22;99204.61;;;10.29;90.96
28701;BME280;15877;52.344;16.790;2023-03-13T10:43:03;99205.17;;;10.30;91.80
28701;BME280;15877;52.344;16.790;2023-03-13T10:45:37;99207.66;;;10.39;92.00
28701;BME280;15877;52.344;16.790;2023-03-13T10:48:14;99205.11;;;10.36;92.88
28701;BME280;15877;52.344;16.790;2023-03-13T10:50:51;99207.05;;;10.46;91.95
28701;BME280;15877;52.344;16.790;2023-03-13T10:53:31;99207.59;;;10.44;92.18
28701;BME280;15877;52.344;16.790;2023-03-13T10:56:10;99203.79;;;10.43;92.50
28701;BME280;15877;52.344;16.790;2023-03-13T10:58:45;99195.35;;;10.32;92.75
28701;BME280;15877;52.344;16.790;2023-03-13T11:01:22;99185.66;;;10.28;93.38
28701;BME280;15877;52.344;16.790;2023-03-13T11:03:56;99187.57;;;10.30;93.46
28701;BME280;15877;52.344;16.790;2023-03-13T11:06:32;99175.17;;;10.27;93.79
28701;BME280;15877;52.344;16.790;2023-03-13T11:09:11;99184.59;;;10.43;93.72
28701;BME280;15877;52.344;16.790;2023-03-13T11:11:49;99177.92;;;10.44;94.49
28701;BME280;15877;52.344;16.790;2023-03-13T11:14:24;99166.02;;;10.44;94.96
28701;BME280;15877;52.344;16.790;2023-03-13T11:16:57;99164.89;;;10.34;96.37
28701;BME280;15877;52.344;16.790;2023-03-13T11:19:37;99158.55;;;10.32;97.31
28701;BME280;15877;52.344;16.790;2023-03-13T11:22:41;99160.55;;;10.41;97.21
28701;BME280;15877;52.344;16.790;2023-03-13T11:25:24;99169.27;;;10.41;97.01
28701;BME280;15877;52.344;16.790;2023-03-13T11:28:16;99162.84;;;10.39;97.49
28701;BME280;15877;52.344;16.790;2023-03-13T11:30:59;99158.23;;;10.34;98.48
28701;BME280;15877;52.344;16.790;2023-03-13T11:33:48;99155.06;;;10.31;100.00
28701;BME280;15877;52.344;16.790;2023-03-13T11:36:25;99149.52;;;10.45;100.00
28701;BME280;15877;52.344;16.790;2023-03-13T11:39:15;99148.20;;;10.53;99.99
28701;BME280;15877;52.344;16.790;2023-03-13T11:41:59;99145.58;;;10.52;99.97
28701;BME280;15877;52.344;16.790;2023-03-13T11:44:45;99150.06;;;10.41;100.00
28701;BME280;15877;52.344;16.790;2023-03-13T11:47:30;99147.08;;;10.46;100.00
28701;BME280;15877;52.344;16.790;2023-03-13T11:50:22;99138.42;;;10.39;100.00
28701;BME280;15877;52.344;16.790;2023-03-13T11:53:16;99141.82;;;10.33;100.00
28701;BME280;15877;52.344;16.790;2023-03-13T11:56:02;99139.21;;;10.41;100.00
28701;BME280;15877;52.344;16.790;2023-03-13T11:58:46;99122.63;;;10.38;100.00
28701;BME280;15877;52.344;16.790;2023-03-13T12:01:25;99136.60;;;10.45;100.00
28701;BME280;15877;52.344;16.790;2023-03-13T12:04:00;99135.16;;;10.42;100.00
28701;BME280;15877;52.344;16.790;2023-03-13T12:06:39;99132.87;;;10.40;100.00
28701;BME280;15877;52.344;16.790;2023-03-13T12:09:16;99131.60;;;10.45;100.00
28701;BME280;15877;52.344;16.790;2023-03-13T12:11:56;99129.06;;;10.52;100.00
28701;BME280;15877;52.344;16.790;2023-03-13T12:14:35;99121.62;;;10.55;100.00
28701;BME280;15877;52.344;16.790;2023-03-13T12:17:12;99113.91;;;10.41;100.00
28701;BME280;15877;52.344;16.790;2023-03-13T12:19:50;99118.36;;;10.44;100.00
28701;BME280;15877;52.344;16.790;2023-03-13T12:22:30;99110.82;;;10.40;100.00
28701;BME280;15877;52.344;16.790;2023-03-13T12:25:14;99107.96;;;10.41;100.00
28701;BME280;15877;52.344;16.790;2023-03-13T12:27:52;99107.02;;;10.44;100.00
28701;BME280;15877;52.344;16.790;2023-03-13T12:30:35;99106.14;;;10.45;100.00
28701;BME280;15877;52.344;16.790;2023-03-13T12:33:18;99104.01;;;10.45;100.00
28701;BME280;15877;52.344;16.790;2023-03-13T12:36:00;99095.52;;;10.51;100.00
28701;BME280;15877;52.344;16.790;2023-03-13T12:38:38;99091.63;;;10.51;100.00
28701;BME280;15877;52.344;16.790;2023-03-13T12:41:19;99084.73;;;10.55;100.00
28701;BME280;15877;52.344;16.790;2023-03-13T12:43:55;99085.99;;;10.65;100.00
28701;BME280;15877;52.344;16.790;2023-03-13T12:46:43;99082.20;;;10.60;100.00
28701;BME280;15877;52.344;16.790;2023-03-13T12:49:40;99063.55;;;10.66;100.00
28701;BME280;15877;52.344;16.790;2023-03-13T12:58:26;99064.02;;;10.76;100.00
28701;BME280;15877;52.344;16.790;2023-03-13T13:01:04;99048.85;;;10.84;100.00
28701;BME280;15877;52.344;16.790;2023-03-13T13:03:42;99036.31;;;10.82;100.00
28701;BME280;15877;52.344;16.790;2023-03-13T13:06:17;99034.64;;;10.86;100.00
28701;BME280;15877;52.344;16.790;2023-03-13T13:09:06;99029.31;;;10.96;100.00
28701;BME280;15877;52.344;16.790;2023-03-13T13:11:49;99024.29;;;11.04;100.00
28701;BME280;15877;52.344;16.790;2023-03-13T13:14:57;99019.13;;;11.00;100.00
28701;BME280;15877;52.344;16.790;2023-03-13T13:17:44;99016.04;;;11.00;100.00
28701;BME280;15877;52.344;16.790;2023-03-13T13:20:31;99007.14;;;10.97;100.00
28701;BME280;15877;52.344;16.790;2023-03-13T13:23:25;99007.84;;;11.04;100.00
28701;BME280;15877;52.344;16.790;2023-03-13T13:32:37;98996.36;;;11.23;100.00
28701;BME280;15877;52.344;16.790;2023-03-13T13:35:31;99001.11;;;11.24;100.00
28701;BME280;15877;52.344;16.790;2023-03-13T13:38:26;98995.16;;;11.24;100.00
28701;BME280;15877;52.344;16.790;2023-03-13T13:44:21;98996.64;;;11.32;100.00
28701;BME280;15877;52.344;16.790;2023-03-13T13:46:56;98993.06;;;11.33;100.00
28701;BME280;15877;52.344;16.790;2023-03-13T13:49:54;98990.11;;;11.36;100.00
28701;BME280;15877;52.344;16.790;2023-03-13T13:52:41;98988.84;;;11.34;100.00
28701;BME280;15877;52.344;16.790;2023-03-13T13:55:44;98986.91;;;11.40;100.00
28701;BME280;15877;52.344;16.790;2023-03-13T13:58:21;98992.75;;;11.50;100.00
28701;BME280;15877;52.344;16.790;2023-03-13T14:00:59;98999.85;;;11.59;100.00
28701;BME280;15877;52.344;16.790;2023-03-13T14:03:36;98998.98;;;11.58;100.00
28701;BME280;15877;52.344;16.790;2023-03-13T14:06:18;98999.48;;;11.54;100.00
28701;BME280;15877;52.344;16.790;2023-03-13T14:08:54;99004.20;;;11.47;100.00